createdAt,value
2018-06-10T00:02:07.901Z,100655.00
2018-06-10T00:05:18.623Z,100663.00
2018-06-10T00:08:29.102Z,100657.00
2018-06-10T00:11:40.868Z,100652.00
2018-06-10T00:14:51.480Z,100660.00
2018-06-10T00:18:02.358Z,100663.00
2018-06-10T00:21:14.273Z,100667.00
2018-06-10T00:24:24.904Z,100664.00
2018-06-10T00:27:35.592Z,100660.00
2018-06-10T00:30:47.217Z,100653.00
2018-06-10T00:33:58.925Z,100645.00
2018-06-10T00:37:10.588Z,100637.00
2018-06-10T00:40:21.817Z,100626.00
2018-06-10T00:43:32.379Z,100612.00
2018-06-10T00:46:44.591Z,100614.00
2018-06-10T00:49:55.384Z,100621.00
2018-06-10T00:53:05.868Z,100632.00
2018-06-10T00:56:33.580Z,100634.00
2018-06-10T00:59:44.999Z,100627.00
2018-06-10T01:02:55.620Z,100628.00
2018-06-10T01:06:06.362Z,100623.00
2018-06-10T01:09:16.988Z,100616.00
2018-06-10T01:12:27.876Z,100595.00
2018-06-10T01:15:38.734Z,100625.00
2018-06-10T01:18:49.187Z,100623.00
2018-06-10T01:21:59.677Z,100631.00
2018-06-10T01:25:10.155Z,100636.00
2018-06-10T01:28:21.096Z,100641.00
2018-06-10T01:31:31.928Z,100634.00
2018-06-10T01:34:42.412Z,100645.00
2018-06-10T01:37:53.285Z,100640.00
2018-06-10T01:41:04.191Z,100636.00
2018-06-10T01:44:15.211Z,100632.00
2018-06-10T01:47:26.034Z,100614.00
2018-06-10T01:50:36.996Z,100615.00
2018-06-10T01:53:48.031Z,100605.00
2018-06-10T01:56:58.655Z,100612.00
2018-06-10T02:00:08.956Z,100616.00
2018-06-10T02:03:19.743Z,100620.00
2018-06-10T02:06:30.513Z,100620.00
2018-06-10T02:09:40.923Z,100629.00
2018-06-10T02:12:51.660Z,100627.00
2018-06-10T02:16:02.101Z,100626.00
2018-06-10T02:19:13.005Z,100624.00
2018-06-10T02:22:23.419Z,100625.00
2018-06-10T02:25:33.895Z,100617.00
2018-06-10T02:28:44.753Z,100613.00
2018-06-10T02:31:55.527Z,100623.00
2018-06-10T02:35:06.834Z,100627.00
2018-06-10T02:38:17.839Z,100619.00
2018-06-10T02:41:29.101Z,100623.00
2018-06-10T02:44:40.212Z,100623.00
2018-06-10T02:47:50.707Z,100624.00
2018-06-10T02:51:05.888Z,100622.00
2018-06-10T02:54:16.760Z,100617.00
2018-06-10T02:57:27.655Z,100622.00
2018-06-10T03:00:39.072Z,100621.00
2018-06-10T03:03:52.287Z,100621.00
2018-06-10T03:07:02.686Z,100618.00
2018-06-10T03:10:14.198Z,100618.00
2018-06-10T03:13:24.940Z,100616.00
2018-06-10T03:16:35.463Z,100616.00
2018-06-10T03:19:46.368Z,100621.00
2018-06-10T03:22:57.014Z,100620.00
2018-06-10T03:26:07.440Z,100613.00
2018-06-10T03:29:17.905Z,100619.00
2018-06-10T03:32:28.566Z,100623.00
2018-06-10T03:35:39.415Z,100625.00
2018-06-10T03:38:50.132Z,100630.00
2018-06-10T03:42:00.595Z,100629.00
2018-06-10T03:45:11.069Z,100635.00
2018-06-10T03:48:21.895Z,100639.00
2018-06-10T03:51:32.824Z,100639.00
2018-06-10T03:54:43.251Z,100639.00
2018-06-10T03:57:54.355Z,100639.00
2018-06-10T04:01:04.877Z,100642.00
2018-06-10T04:04:15.639Z,100636.00
2018-06-10T04:07:26.341Z,100634.00
2018-06-10T04:10:37.116Z,100634.00
2018-06-10T04:13:47.861Z,100637.00
2018-06-10T04:16:59.116Z,100641.00
2018-06-10T04:20:09.695Z,100640.00
2018-06-10T04:23:20.471Z,100644.00
2018-06-10T04:26:31.010Z,100650.00
2018-06-10T04:29:41.441Z,100644.00
2018-06-10T04:32:52.087Z,100643.00
2018-06-10T04:36:02.395Z,100642.00
2018-06-10T04:39:13.587Z,100631.00
2018-06-10T04:42:24.451Z,100640.00
2018-06-10T04:45:35.204Z,100633.00
2018-06-10T04:48:45.825Z,100629.00
2018-06-10T04:51:56.165Z,100611.00
2018-06-10T04:55:07.548Z,100627.00
2018-06-10T04:58:18.348Z,100615.00
2018-06-10T05:01:29.155Z,100616.00
2018-06-10T05:04:39.463Z,100604.00
2018-06-10T05:07:50.292Z,100606.00
2018-06-10T05:11:01.113Z,100609.00
2018-06-10T05:14:11.857Z,100605.00
2018-06-10T05:17:22.576Z,100601.00
2018-06-10T05:20:33.435Z,100596.00
2018-06-10T05:23:44.036Z,100595.00
2018-06-10T05:26:55.455Z,100595.00
2018-06-10T05:30:06.362Z,100596.00
2018-06-10T05:33:17.220Z,100598.00
2018-06-10T05:36:28.357Z,100600.00
2018-06-10T05:39:39.054Z,100605.00
2018-06-10T05:42:49.720Z,100605.00
2018-06-10T05:46:00.769Z,100607.00
2018-06-10T05:49:11.479Z,100611.00
2018-06-10T05:52:22.205Z,100616.00
2018-06-10T05:55:33.353Z,100611.00
2018-06-10T05:58:44.167Z,100617.00
2018-06-10T06:01:54.765Z,100616.00
2018-06-10T06:05:05.397Z,100613.00
2018-06-10T06:08:16.299Z,100613.00
2018-06-10T06:11:27.992Z,100615.00
2018-06-10T06:14:39.896Z,100623.00
2018-06-10T06:17:50.351Z,100622.00
2018-06-10T06:21:00.657Z,100629.00
2018-06-10T06:24:11.507Z,100629.00
2018-06-10T06:27:23.752Z,100629.00
2018-06-10T06:30:34.446Z,100634.00
2018-06-10T06:33:45.143Z,100622.00
2018-06-10T06:36:55.853Z,100625.00
2018-06-10T06:40:06.495Z,100634.00
2018-06-10T06:43:17.367Z,100639.00
2018-06-10T06:46:27.994Z,100641.00
2018-06-10T06:49:38.699Z,100645.00
2018-06-10T06:52:49.219Z,100645.00
2018-06-10T06:56:01.305Z,100642.00
2018-06-10T06:59:12.003Z,100650.00
2018-06-10T07:02:22.400Z,100649.00
2018-06-10T07:05:32.936Z,100652.00
2018-06-10T07:08:43.364Z,100658.00
2018-06-10T07:11:54.237Z,100657.00
2018-06-10T07:15:04.985Z,100654.00
2018-06-10T07:18:15.366Z,100653.00
2018-06-10T07:21:26.265Z,100656.00
2018-06-10T07:24:36.671Z,100652.00
2018-06-10T07:27:47.568Z,100660.00
2018-06-10T07:30:58.066Z,100660.00
2018-06-10T07:34:08.987Z,100660.00
2018-06-10T07:37:19.674Z,100655.00
2018-06-10T07:40:30.473Z,100653.00
2018-06-10T07:43:41.112Z,100656.00
2018-06-10T07:46:51.806Z,100658.00
2018-06-10T07:50:04.717Z,100642.00
2018-06-10T07:53:15.408Z,100651.00
2018-06-10T07:56:26.065Z,100653.00
2018-06-10T07:59:36.977Z,100657.00
2018-06-10T08:02:47.486Z,100657.00
2018-06-10T08:05:58.576Z,100653.00
2018-06-10T08:09:09.433Z,100648.00
2018-06-10T08:12:20.026Z,100656.00
2018-06-10T08:15:30.861Z,100650.00
2018-06-10T08:18:42.628Z,100655.00
2018-06-10T08:21:53.265Z,100655.00
2018-06-10T08:25:06.017Z,100644.00
2018-06-10T08:28:17.072Z,100644.00
2018-06-10T08:31:27.921Z,100641.00
2018-06-10T08:34:38.400Z,100640.00
2018-06-10T08:37:48.879Z,100641.00
2018-06-10T08:40:59.706Z,100634.00
2018-06-10T08:44:10.638Z,100633.00
2018-06-10T08:47:21.361Z,100633.00
2018-06-10T08:50:32.391Z,100629.00
2018-06-10T08:53:43.470Z,100632.00
2018-06-10T08:56:54.440Z,100629.00
2018-06-10T09:00:05.232Z,100637.00
2018-06-10T09:03:16.047Z,100636.00
2018-06-10T09:06:27.007Z,100637.00
2018-06-10T09:09:37.403Z,100646.00
2018-06-10T09:12:48.414Z,100643.00
2018-06-10T09:15:58.744Z,100640.00
2018-06-10T09:19:09.217Z,100642.00
2018-06-10T09:22:19.793Z,100646.00
2018-06-10T09:25:31.026Z,100649.00
2018-06-10T09:28:41.887Z,100644.00
2018-06-10T09:31:52.385Z,100648.00
2018-06-10T09:35:03.118Z,100642.00
2018-06-10T09:38:13.743Z,100649.00
2018-06-10T09:41:24.648Z,100650.00
2018-06-10T09:44:35.825Z,100653.00
2018-06-10T09:47:46.367Z,100645.00
2018-06-10T09:50:57.080Z,100644.00
2018-06-10T09:54:09.905Z,100640.00
2018-06-10T09:57:20.584Z,100642.00
2018-06-10T10:00:31.046Z,100642.00
2018-06-10T10:03:41.453Z,100646.00
2018-06-10T10:06:52.138Z,100644.00
2018-06-10T10:10:03.110Z,100661.00
2018-06-10T10:13:13.545Z,100649.00
2018-06-10T10:16:24.345Z,100661.00
2018-06-10T10:19:35.326Z,100657.00
2018-06-10T10:22:46.206Z,100663.00
2018-06-10T10:25:57.117Z,100663.00
2018-06-10T10:29:07.840Z,100656.00
2018-06-10T10:32:18.513Z,100664.00
2018-06-10T10:35:29.392Z,100661.00
2018-06-10T10:38:40.392Z,100663.00
2018-06-10T10:41:50.709Z,100664.00
2018-06-10T10:45:01.601Z,100661.00
2018-06-10T10:48:13.378Z,100659.00
2018-06-10T10:51:24.543Z,100663.00
2018-06-10T10:54:34.877Z,100669.00
2018-06-10T10:57:45.301Z,100666.00
2018-06-10T11:01:00.649Z,100668.00
2018-06-10T11:04:11.480Z,100667.00
2018-06-10T11:07:23.179Z,100663.00
2018-06-10T11:10:34.409Z,100654.00
2018-06-10T11:13:45.233Z,100654.00
2018-06-10T11:16:56.123Z,100660.00
2018-06-10T11:20:06.548Z,100664.00
2018-06-10T11:23:18.076Z,100664.00
2018-06-10T11:26:29.347Z,100662.00
2018-06-10T11:29:40.197Z,100668.00
2018-06-10T11:32:51.115Z,100668.00
2018-06-10T11:36:01.959Z,100670.00
2018-06-10T11:39:12.904Z,100672.00
2018-06-10T11:42:27.779Z,100659.00
2018-06-10T11:45:38.516Z,100659.00
2018-06-10T11:48:49.368Z,100666.00
2018-06-10T11:52:00.321Z,100662.00
2018-06-10T11:55:11.106Z,100670.00
2018-06-10T11:58:21.731Z,100667.00
2018-06-10T12:01:32.668Z,100662.00
2018-06-10T12:04:43.536Z,100662.00
2018-06-10T12:07:54.460Z,100661.00
2018-06-10T12:11:04.714Z,100663.00
2018-06-10T12:14:15.614Z,100669.00
2018-06-10T12:17:26.510Z,100665.00
2018-06-10T12:20:37.852Z,100661.00
2018-06-10T12:23:48.750Z,100647.00
2018-06-10T12:26:59.613Z,100658.00
2018-06-10T12:30:10.760Z,100653.00
2018-06-10T12:33:21.168Z,100660.00
2018-06-10T12:36:32.484Z,100660.00
2018-06-10T12:39:43.421Z,100664.00
2018-06-10T12:42:54.241Z,100657.00
2018-06-10T12:46:05.505Z,100661.00
2018-06-10T12:49:16.376Z,100645.00
2018-06-10T12:52:27.368Z,100634.00
2018-06-10T12:55:38.366Z,100633.00
2018-06-10T12:58:48.931Z,100629.00
2018-06-10T13:01:59.849Z,100638.00
2018-06-10T13:05:10.338Z,100634.00
2018-06-10T13:08:21.720Z,100630.00
2018-06-10T13:11:32.468Z,100630.00
2018-06-10T13:14:43.478Z,100625.00
2018-06-10T13:17:53.814Z,100625.00
2018-06-10T13:21:04.153Z,100629.00
2018-06-10T13:24:14.969Z,100632.00
2018-06-10T13:27:25.905Z,100628.00
2018-06-10T13:30:36.323Z,100632.00
2018-06-10T13:33:46.981Z,100643.00
2018-06-10T13:36:58.240Z,100641.00
2018-06-10T13:40:09.186Z,100642.00
2018-06-10T13:43:20.111Z,100636.00
2018-06-10T13:46:31.239Z,100628.00
2018-06-10T13:49:41.976Z,100623.00
2018-06-10T13:52:52.413Z,100624.00
2018-06-10T13:56:03.341Z,100624.00
2018-06-10T13:59:14.165Z,100618.00
2018-06-10T14:02:24.896Z,100609.00
2018-06-10T14:05:35.851Z,100603.00
2018-06-10T14:08:46.391Z,100607.00
2018-06-10T14:11:57.111Z,100604.00
2018-06-10T14:15:08.370Z,100599.00
2018-06-10T14:18:19.383Z,100598.00
2018-06-10T14:21:29.744Z,100584.00
2018-06-10T14:24:41.124Z,100577.00
2018-06-10T14:27:52.025Z,100574.00
2018-06-10T14:31:02.735Z,100571.00
2018-06-10T14:34:12.954Z,100565.00
2018-06-10T14:37:24.972Z,100568.00
2018-06-10T14:40:35.754Z,100583.00
2018-06-10T14:43:46.707Z,100583.00
2018-06-10T14:46:57.292Z,100577.00
2018-06-10T14:50:08.173Z,100581.00
2018-06-10T14:53:18.645Z,100569.00
2018-06-10T14:56:30.073Z,100572.00
2018-06-10T14:59:41.044Z,100574.00
2018-06-10T15:02:51.468Z,100592.00
2018-06-10T15:06:02.140Z,100584.00
2018-06-10T15:09:12.640Z,100581.00
2018-06-10T15:12:23.543Z,100566.00
2018-06-10T15:15:34.492Z,100577.00
2018-06-10T15:18:45.158Z,100578.00
2018-06-10T15:21:56.205Z,100602.00
2018-06-10T15:25:07.165Z,100606.00
2018-06-10T15:28:18.417Z,100596.00
2018-06-10T15:31:28.974Z,100601.00
2018-06-10T15:34:39.744Z,100613.00
2018-06-10T15:37:51.191Z,100611.00
2018-06-10T15:41:01.581Z,100595.00
2018-06-10T15:44:12.054Z,100576.00
2018-06-10T15:47:22.908Z,100589.00
2018-06-10T15:50:33.513Z,100588.00
2018-06-10T15:53:44.056Z,100586.00
2018-06-10T15:56:54.672Z,100592.00
2018-06-10T16:00:05.373Z,100591.00
2018-06-10T16:03:15.691Z,100577.00
2018-06-10T16:06:26.256Z,100564.00
2018-06-10T16:09:37.504Z,100559.00
2018-06-10T16:12:48.816Z,100551.00
2018-06-10T16:16:01.598Z,100541.00
2018-06-10T16:19:11.984Z,100547.00
2018-06-10T16:22:23.044Z,100549.00
2018-06-10T16:25:34.046Z,100539.00
2018-06-10T16:28:45.079Z,100537.00
2018-06-10T16:31:55.968Z,100537.00
2018-06-10T16:35:08.568Z,100540.00
2018-06-10T16:38:19.911Z,100540.00
2018-06-10T16:41:32.046Z,100541.00
2018-06-10T16:44:42.805Z,100544.00
2018-06-10T16:47:58.086Z,100554.00
2018-06-10T16:51:08.874Z,100553.00
2018-06-10T16:54:19.757Z,100561.00
2018-06-10T16:57:32.137Z,100561.00
2018-06-10T17:00:42.964Z,100555.00
2018-06-10T17:03:53.873Z,100554.00
2018-06-10T17:07:04.733Z,100548.00
2018-06-10T17:10:15.572Z,100557.00
2018-06-10T17:13:26.518Z,100571.00
2018-06-10T17:16:37.163Z,100585.00
2018-06-10T17:19:48.383Z,100583.00
2018-06-10T17:23:02.836Z,100581.00
2018-06-10T17:26:13.769Z,100576.00
2018-06-10T17:29:24.669Z,100579.00
2018-06-10T17:32:37.130Z,100582.00
2018-06-10T17:35:48.027Z,100583.00
2018-06-10T17:38:58.916Z,100591.00
2018-06-10T17:42:10.360Z,100593.00
2018-06-10T17:45:21.006Z,100606.00
2018-06-10T17:48:31.985Z,100609.00
2018-06-10T17:51:42.593Z,100617.00
2018-06-10T17:54:53.123Z,100622.00
2018-06-10T17:58:04.287Z,100621.00
2018-06-10T18:01:15.325Z,100620.00
2018-06-10T18:04:26.574Z,100624.00
2018-06-10T18:07:37.233Z,100628.00
2018-06-10T18:10:47.804Z,100631.00
2018-06-10T18:13:58.729Z,100628.00
2018-06-10T18:17:09.828Z,100631.00
2018-06-10T18:20:22.305Z,100625.00
2018-06-10T18:23:32.912Z,100629.00
2018-06-10T18:26:45.421Z,100644.00
2018-06-10T18:29:56.382Z,100635.00
2018-06-10T18:33:07.360Z,100639.00
2018-06-10T18:36:18.302Z,100637.00
2018-06-10T18:39:28.955Z,100644.00
2018-06-10T18:42:39.437Z,100641.00
2018-06-10T18:45:49.863Z,100650.00
2018-06-10T18:49:00.826Z,100640.00
2018-06-10T18:52:11.725Z,100645.00
2018-06-10T18:55:23.628Z,100642.00
2018-06-10T18:58:34.285Z,100646.00
2018-06-10T19:01:44.629Z,100647.00
2018-06-10T19:04:55.113Z,100662.00
2018-06-10T19:08:06.308Z,100667.00
2018-06-10T19:11:17.581Z,100670.00
2018-06-10T19:14:28.804Z,100674.00
2018-06-10T19:17:40.655Z,100678.00
2018-06-10T19:20:55.915Z,100688.00
2018-06-10T19:24:06.671Z,100690.00
2018-06-10T19:27:21.992Z,100701.00
2018-06-10T19:30:32.422Z,100708.00
2018-06-10T19:33:43.471Z,100718.00
2018-06-10T19:36:54.386Z,100720.00
2018-06-10T19:40:04.983Z,100721.00
2018-06-10T19:43:15.821Z,100728.00
2018-06-10T19:46:26.895Z,100735.00
2018-06-10T19:49:37.560Z,100733.00
2018-06-10T19:52:48.536Z,100740.00
2018-06-10T19:56:00.214Z,100754.00
2018-06-10T19:59:11.497Z,100750.00
2018-06-10T20:02:22.606Z,100752.00
2018-06-10T20:05:33.790Z,100755.00
2018-06-10T20:08:44.660Z,100757.00
2018-06-10T20:11:55.796Z,100752.00
2018-06-10T20:15:06.597Z,100755.00
2018-06-10T20:18:17.550Z,100767.00
2018-06-10T20:21:28.562Z,100763.00
2018-06-10T20:24:40.375Z,100767.00
2018-06-10T20:27:51.338Z,100772.00
2018-06-10T20:31:01.943Z,100771.00
2018-06-10T20:34:12.387Z,100771.00
2018-06-10T20:37:23.339Z,100782.00
2018-06-10T20:40:34.976Z,100785.00
2018-06-10T20:43:45.508Z,100796.00
2018-06-10T20:46:56.516Z,100800.00
2018-06-10T20:50:08.416Z,100806.00
2018-06-10T20:53:19.540Z,100803.00
2018-06-10T20:56:29.944Z,100802.00
2018-06-10T20:59:40.921Z,100806.00
2018-06-10T21:02:51.511Z,100806.00
2018-06-10T21:06:02.148Z,100820.00
2018-06-10T21:09:12.836Z,100821.00
2018-06-10T21:12:23.716Z,100823.00
2018-06-10T21:15:34.632Z,100821.00
2018-06-10T21:18:46.097Z,100819.00
2018-06-10T21:21:56.983Z,100826.00
2018-06-10T21:25:07.828Z,100827.00
2018-06-10T21:28:19.210Z,100823.00
2018-06-10T21:31:29.998Z,100825.00
2018-06-10T21:34:40.841Z,100830.00
2018-06-10T21:37:51.513Z,100827.00
2018-06-10T21:41:02.257Z,100828.00
2018-06-10T21:44:12.610Z,100836.00
2018-06-10T21:47:24.008Z,100833.00
2018-06-10T21:50:34.983Z,100831.00
2018-06-10T21:53:47.552Z,100829.00
2018-06-10T21:56:58.881Z,100837.00
2018-06-10T22:00:25.529Z,100832.00
2018-06-10T22:03:35.933Z,100830.00
2018-06-10T22:06:51.753Z,100812.00
2018-06-10T22:10:02.862Z,100831.00
2018-06-10T22:13:20.064Z,100826.00
2018-06-10T22:16:32.542Z,100827.00
2018-06-10T22:19:49.032Z,100830.00
2018-06-10T22:23:00.067Z,100833.00
2018-06-10T22:26:12.326Z,100836.00
2018-06-10T22:29:24.379Z,100834.00
2018-06-10T22:32:36.176Z,100831.00
2018-06-10T22:35:47.508Z,100836.00
2018-06-10T22:38:58.700Z,100849.00
2018-06-10T22:42:09.437Z,100847.00
2018-06-10T22:45:20.813Z,100845.00
2018-06-10T22:48:31.468Z,100841.00
2018-06-10T22:51:42.204Z,100835.00
2018-06-10T22:54:53.217Z,100828.00
2018-06-10T22:58:03.660Z,100819.00
2018-06-10T23:01:14.578Z,100827.00
2018-06-10T23:04:25.368Z,100844.00
2018-06-10T23:07:36.104Z,100848.00
2018-06-10T23:10:46.796Z,100850.00
2018-06-10T23:13:57.839Z,100849.00
2018-06-10T23:17:08.677Z,100850.00
2018-06-10T23:20:19.296Z,100842.00
2018-06-10T23:23:29.824Z,100850.00
2018-06-10T23:26:40.678Z,100847.00
2018-06-10T23:29:51.927Z,100845.00
2018-06-10T23:33:03.053Z,100839.00
2018-06-10T23:36:14.010Z,100833.00
2018-06-10T23:39:24.877Z,100830.00
2018-06-10T23:42:36.271Z,100829.00
2018-06-10T23:45:47.102Z,100837.00
2018-06-10T23:48:57.958Z,100833.00
2018-06-10T23:52:08.592Z,100831.00
2018-06-10T23:55:19.912Z,100833.00
2018-06-10T23:58:31.471Z,100843.00
